Time;durP1;ratioP1;P1;durP2;ratioP2;P2;SDS_P1;SDS_P2;PMS_P1;PMS_P2;Temp;Humidity;BMP_temperature;BMP_pressure;BME280_temperature;BME280_humidity;BME280_pressure;Samples;Min_cycle;Max_cycle;Signal;HPM_P1;HPM_P2
2020/12/23 00:02:07;;;;;;;84.28;32.83;;;9.40;99.90;;;;;;5046397;28;20063;-71
2020/12/23 00:04:35;;;;;;;79.07;30.05;;;9.40;99.90;;;;;;5065029;28;20063;-72
2020/12/23 00:07:01;;;;;;;84.05;25.20;;;9.30;99.90;;;;;;5029602;28;20045;-72
2020/12/23 00:09:27;;;;;;;74.43;23.27;;;9.30;99.90;;;;;;5047964;28;20572;-71
2020/12/23 00:11:54;;;;;;;77.75;25.73;;;9.30;99.90;;;;;;5064232;28;20052;-72
2020/12/23 00:14:21;;;;;;;86.43;25.83;;;9.30;99.90;;;;;;5063957;28;20110;-72
2020/12/23 00:16:48;;;;;;;85.38;25.85;;;9.30;99.90;;;;;;5063388;28;20048;-71
2020/12/23 00:19:14;;;;;;;83.97;25.63;;;9.30;99.90;;;;;;5064320;28;20337;-71
2020/12/23 00:21:41;;;;;;;88.07;29.58;;;9.30;99.90;;;;;;5056814;28;20094;-72
2020/12/23 00:24:08;;;;;;;90.57;27.80;;;9.20;99.90;;;;;;5064511;28;20045;-71
2020/12/23 00:26:34;;;;;;;98.20;29.95;;;9.20;99.90;;;;;;5063376;28;20041;-71
2020/12/23 00:29:00;;;;;;;90.68;28.00;;;9.20;99.90;;;;;;5065248;28;20061;-71
2020/12/23 00:31:26;;;;;;;83.57;26.33;;;9.10;99.90;;;;;;5046106;28;20048;-72
2020/12/23 00:33:54;;;;;;;80.53;26.08;;;9.10;99.90;;;;;;5065401;28;20367;-71
2020/12/23 00:36:21;;;;;;;79.00;26.52;;;9.10;99.90;;;;;;5062409;28;20044;-70
2020/12/23 00:38:48;;;;;;;80.55;23.50;;;9.00;99.90;;;;;;5063990;28;20044;-70
2020/12/23 00:41:14;;;;;;;77.70;25.92;;;9.00;99.90;;;;;;5063019;28;20609;-71
2020/12/23 00:43:41;;;;;;;81.18;25.98;;;9.00;99.90;;;;;;5063394;28;20045;-69
2020/12/23 00:46:13;;;;;;;80.30;24.98;;;9.00;99.90;;;;;;5062557;28;20546;-70
2020/12/23 00:48:41;;;;;;;74.20;23.42;;;8.90;99.90;;;;;;5062785;28;20052;-71
2020/12/23 00:51:16;;;;;;;68.40;22.23;;;8.90;99.90;;;;;;5057399;28;20146;-70
2020/12/23 00:53:44;;;;;;;69.85;22.48;;;8.90;99.90;;;;;;5063876;28;20244;-70
2020/12/23 00:56:12;;;;;;;70.18;21.77;;;8.90;99.90;;;;;;5063875;28;20136;-71
2020/12/23 00:58:39;;;;;;;65.07;21.98;;;9.00;99.90;;;;;;5064241;28;20148;-71
2020/12/23 01:01:06;;;;;;;66.18;22.23;;;9.00;99.90;;;;;;5064160;28;20127;-72
2020/12/23 01:03:44;;;;;;;62.63;21.67;;;9.00;99.90;;;;;;5045284;28;20049;-71
2020/12/23 01:06:14;;;;;;;69.63;23.98;;;9.10;99.90;;;;;;5063455;28;20110;-72
2020/12/23 01:08:42;;;;;;;63.28;21.85;;;9.00;99.90;;;;;;5063001;28;20139;-72
2020/12/23 01:11:10;;;;;;;66.40;24.23;;;9.10;99.90;;;;;;5063143;28;20523;-70
2020/12/23 01:13:37;;;;;;;79.78;24.80;;;9.10;99.90;;;;;;5064748;28;20070;-71
2020/12/23 01:16:04;;;;;;;74.70;24.65;;;9.20;99.90;;;;;;5062802;28;20060;-71
2020/12/23 01:18:31;;;;;;;78.43;25.40;;;9.10;99.90;;;;;;5046469;28;20461;-71
2020/12/23 01:20:57;;;;;;;90.03;27.00;;;9.10;99.90;;;;;;5057160;28;20048;-71
2020/12/23 01:23:23;;;;;;;97.10;30.08;;;9.10;99.90;;;;;;5060607;28;20064;-71
2020/12/23 01:25:51;;;;;;;86.30;29.17;;;9.10;99.90;;;;;;5058516;28;20148;-71
2020/12/23 01:28:18;;;;;;;99.15;28.13;;;9.10;99.90;;;;;;5061409;28;20056;-70
2020/12/23 01:30:44;;;;;;;87.95;27.67;;;9.10;99.90;;;;;;5062573;28;20132;-71
2020/12/23 01:33:11;;;;;;;94.07;28.63;;;9.10;99.90;;;;;;5065030;28;20063;-69
2020/12/23 01:35:37;;;;;;;102.63;29.17;;;9.20;99.90;;;;;;5042161;28;20132;-72
2020/12/23 01:38:04;;;;;;;96.13;29.67;;;9.10;99.90;;;;;;5043301;28;20045;-71
2020/12/23 01:40:30;;;;;;;96.10;28.77;;;9.00;99.90;;;;;;5045823;28;20371;-71
2020/12/23 01:42:56;;;;;;;96.97;28.17;;;9.10;99.90;;;;;;5062395;28;20110;-70
2020/12/23 01:45:23;;;;;;;99.13;30.15;;;9.10;99.90;;;;;;5062213;28;20053;-69
2020/12/23 01:47:52;;;;;;;92.57;27.92;;;9.10;99.90;;;;;;5061825;28;20044;-70
2020/12/23 01:50:18;;;;;;;83.88;28.42;;;9.20;99.90;;;;;;5045708;28;20266;-71
2020/12/23 01:52:45;;;;;;;131.90;31.58;;;9.20;99.90;;;;;;5064207;28;20045;-72
2020/12/23 01:55:11;;;;;;;112.55;31.02;;;9.10;99.90;;;;;;5062283;28;20057;-71
2020/12/23 01:57:38;;;;;;;98.75;29.10;;;9.10;99.90;;;;;;5051926;28;20052;-70
2020/12/23 02:00:06;;;;;;;101.75;29.95;;;9.30;99.90;;;;;;5056796;28;20045;-70
2020/12/23 02:02:42;;;;;;;110.85;30.42;;;9.30;99.90;;;;;;5063325;28;20136;-72
2020/12/23 02:05:09;;;;;;;115.50;33.13;;;9.40;99.90;;;;;;5061725;28;20084;-71
2020/12/23 02:07:37;;;;;;;115.47;32.28;;;9.30;99.90;;;;;;5062213;28;20056;-71
2020/12/23 02:10:06;;;;;;;114.05;31.60;;;9.30;99.90;;;;;;5062147;28;20132;-69
2020/12/23 02:12:33;;;;;;;98.20;29.83;;;9.40;99.90;;;;;;5064124;28;20359;-70
2020/12/23 02:15:14;;;;;;;112.50;33.17;;;9.30;99.90;;;;;;5062494;28;20525;-70
2020/12/23 02:17:41;;;;;;;134.75;31.30;;;9.40;99.90;;;;;;5063291;28;20094;-70
2020/12/23 02:20:10;;;;;;;127.65;32.67;;;9.40;99.90;;;;;;5062334;28;20044;-70
2020/12/23 02:22:37;;;;;;;119.32;29.75;;;9.50;99.90;;;;;;5062299;28;20044;-71
2020/12/23 02:25:05;;;;;;;113.13;30.70;;;9.50;99.90;;;;;;5063866;28;20689;-71
2020/12/23 02:27:32;;;;;;;117.55;30.27;;;9.50;99.90;;;;;;5055075;28;20142;-71
2020/12/23 02:29:59;;;;;;;116.43;31.52;;;9.50;99.90;;;;;;5064191;28;20048;-70
2020/12/23 02:32:26;;;;;;;110.90;31.75;;;9.40;99.90;;;;;;5060556;28;20058;-69
2020/12/23 02:34:53;;;;;;;93.90;28.83;;;9.40;99.90;;;;;;5075817;28;20056;-71
2020/12/23 02:37:21;;;;;;;98.38;29.25;;;9.40;99.90;;;;;;5052988;28;20045;-70
2020/12/23 02:39:53;;;;;;;96.22;29.15;;;9.40;99.90;;;;;;5059827;28;20068;-70
2020/12/23 02:42:21;;;;;;;89.20;26.55;;;9.40;99.90;;;;;;5044248;28;20041;-71
2020/12/23 02:44:48;;;;;;;95.03;28.23;;;9.30;99.90;;;;;;5048875;28;20045;-70
2020/12/23 02:47:16;;;;;;;93.57;27.45;;;9.30;99.90;;;;;;5064724;28;20546;-71
2020/12/23 02:49:43;;;;;;;103.30;28.50;;;9.30;99.90;;;;;;5066766;28;20059;-71
2020/12/23 02:52:10;;;;;;;108.97;28.52;;;9.40;99.90;;;;;;5059347;28;20049;-70
2020/12/23 02:54:37;;;;;;;91.00;27.15;;;9.40;99.90;;;;;;5059123;28;20425;-70
2020/12/23 02:57:04;;;;;;;90.50;27.58;;;9.50;99.90;;;;;;5056510;28;20056;-69
2020/12/23 02:59:30;;;;;;;91.88;28.63;;;9.30;99.90;;;;;;5045022;28;20056;-70
2020/12/23 03:01:57;;;;;;;85.13;27.80;;;9.30;99.90;;;;;;5044113;28;20044;-70
2020/12/23 03:04:23;;;;;;;100.43;27.40;;;9.40;99.90;;;;;;5060958;28;20615;-70
2020/12/23 03:06:49;;;;;;;96.93;27.02;;;9.50;99.90;;;;;;5045058;28;20429;-72
2020/12/23 03:09:16;;;;;;;92.80;26.60;;;9.50;99.90;;;;;;5080414;28;20059;-72
2020/12/23 03:11:42;;;;;;;85.97;28.02;;;9.40;99.90;;;;;;5064939;28;20603;-71
2020/12/23 03:14:09;;;;;;;104.10;28.60;;;9.30;99.90;;;;;;5066553;28;20379;-71
2020/12/23 03:16:36;;;;;;;97.07;28.15;;;9.40;99.90;;;;;;5064726;28;20509;-71
2020/12/23 03:19:03;;;;;;;93.40;27.35;;;9.30;99.90;;;;;;5065983;28;20048;-71
2020/12/23 03:21:29;;;;;;;114.57;30.45;;;9.30;99.90;;;;;;5047996;28;20036;-71
2020/12/23 03:23:55;;;;;;;120.50;30.23;;;9.50;99.90;;;;;;5065226;28;20078;-70
2020/12/23 03:26:22;;;;;;;108.82;28.33;;;9.40;99.90;;;;;;5056241;28;20067;-70
2020/12/23 03:28:48;;;;;;;118.20;29.73;;;9.50;99.90;;;;;;5048571;28;20147;-70
2020/12/23 03:31:16;;;;;;;122.25;29.02;;;9.60;99.90;;;;;;5063970;28;20072;-70
2020/12/23 03:33:42;;;;;;;102.70;27.20;;;9.60;99.90;;;;;;5065714;28;20071;-70
2020/12/23 03:36:09;;;;;;;121.65;28.27;;;9.60;99.90;;;;;;5065551;28;20151;-71
2020/12/23 03:38:36;;;;;;;95.75;26.20;;;9.60;99.90;;;;;;5065068;28;20155;-71
2020/12/23 03:41:02;;;;;;;97.13;26.98;;;9.40;99.90;;;;;;5061341;28;20084;-70
2020/12/23 03:43:29;;;;;;;101.95;26.77;;;9.40;99.90;;;;;;5045262;28;20049;-70
2020/12/23 03:45:55;;;;;;;87.90;23.90;;;9.30;99.90;;;;;;5045440;28;20068;-69
2020/12/23 03:48:21;;;;;;;95.30;26.45;;;9.30;99.90;;;;;;5044043;28;20079;-69
2020/12/23 03:50:48;;;;;;;96.78;27.20;;;9.30;99.90;;;;;;5058400;28;20214;-71
2020/12/23 03:53:14;;;;;;;90.22;25.60;;;9.30;99.90;;;;;;5066113;28;20509;-71
2020/12/23 03:55:41;;;;;;;98.45;26.42;;;9.30;99.90;;;;;;5062862;28;20064;-71
2020/12/23 03:58:07;;;;;;;100.15;26.15;;;9.30;99.90;;;;;;5050079;28;20147;-70
2020/12/23 04:00:33;;;;;;;93.30;24.73;;;9.30;99.90;;;;;;5055665;28;20131;-72
2020/12/23 04:03:00;;;;;;;120.57;27.83;;;9.30;99.90;;;;;;5065120;28;20045;-72
2020/12/23 04:05:36;;;;;;;128.18;27.98;;;9.50;99.90;;;;;;5063835;28;20048;-70
2020/12/23 04:08:03;;;;;;;120.10;29.58;;;9.60;99.90;;;;;;5047643;28;20068;-71
2020/12/23 04:10:29;;;;;;;94.47;26.13;;;9.60;99.90;;;;;;5065120;28;20501;-71
2020/12/23 04:12:56;;;;;;;107.80;28.02;;;9.60;99.90;;;;;;5063852;28;20052;-71
2020/12/23 04:15:22;;;;;;;110.13;26.23;;;9.50;99.90;;;;;;5064035;28;20555;-71
2020/12/23 04:17:50;;;;;;;101.15;25.38;;;9.50;99.90;;;;;;5065054;28;20048;-71
2020/12/23 04:20:16;;;;;;;99.75;25.02;;;9.50;99.90;;;;;;5065153;28;20124;-70
2020/12/23 04:22:43;;;;;;;88.40;25.50;;;9.50;99.90;;;;;;5064317;28;20048;-71
2020/12/23 04:25:09;;;;;;;95.20;25.73;;;9.60;99.90;;;;;;5063874;28;20577;-71
2020/12/23 04:27:37;;;;;;;79.15;24.77;;;9.70;99.90;;;;;;5038831;28;20045;-71
2020/12/23 04:30:05;;;;;;;85.93;26.77;;;9.70;99.90;;;;;;5063481;28;20523;-71
2020/12/23 04:32:31;;;;;;;111.15;28.55;;;9.70;99.90;;;;;;5062527;28;20489;-71
2020/12/23 04:35:01;;;;;;;109.32;27.77;;;9.80;99.90;;;;;;5063607;28;20062;-70
2020/12/23 04:37:32;;;;;;;106.78;28.52;;;9.80;99.90;;;;;;5064907;28;20054;-71
2020/12/23 04:40:00;;;;;;;108.38;29.00;;;9.60;99.90;;;;;;5063192;28;20052;-71
2020/12/23 04:42:27;;;;;;;109.88;27.42;;;9.60;99.90;;;;;;5047573;28;20520;-70
2020/12/23 04:44:55;;;;;;;115.95;27.38;;;9.60;99.90;;;;;;5044164;28;20144;-72
2020/12/23 04:47:26;;;;;;;96.10;28.30;;;9.70;99.90;;;;;;5072472;28;20060;-72
2020/12/23 04:49:56;;;;;;;82.57;26.75;;;9.80;99.90;;;;;;5063734;28;20063;-70
2020/12/23 04:52:34;;;;;;;95.05;26.30;;;9.70;99.90;;;;;;5063895;28;20052;-70
2020/12/23 04:55:04;;;;;;;91.97;26.95;;;9.70;99.90;;;;;;5063601;28;20106;-69
2020/12/23 04:57:31;;;;;;;96.68;27.25;;;9.70;99.90;;;;;;5035192;28;20057;-71
2020/12/23 04:59:57;;;;;;;86.80;28.30;;;9.70;99.90;;;;;;5028312;28;20037;-71
2020/12/23 05:02:26;;;;;;;84.72;26.95;;;9.70;99.90;;;;;;5062144;28;20044;-71
2020/12/23 05:04:53;;;;;;;76.97;26.25;;;9.60;99.90;;;;;;5062670;28;20487;-71
2020/12/23 05:07:21;;;;;;;69.75;25.42;;;9.70;99.90;;;;;;5062617;28;20501;-71
2020/12/23 05:09:49;;;;;;;82.78;27.58;;;9.70;99.90;;;;;;5047083;28;20489;-71
2020/12/23 05:12:17;;;;;;;87.90;27.63;;;9.70;99.90;;;;;;5029773;28;20059;-73
2020/12/23 05:14:43;;;;;;;88.15;30.25;;;9.70;99.90;;;;;;5062423;28;20438;-71
2020/12/23 05:17:10;;;;;;;79.60;28.45;;;9.70;99.90;;;;;;5062339;28;20329;-71
2020/12/23 05:19:38;;;;;;;82.75;27.63;;;9.80;99.90;;;;;;5064537;28;20139;-71
2020/12/23 05:22:06;;;;;;;80.60;27.88;;;9.70;99.90;;;;;;5062910;28;20094;-69
2020/12/23 05:24:37;;;;;;;97.75;28.42;;;9.60;99.90;;;;;;5063531;28;20052;-70
2020/12/23 05:27:05;;;;;;;84.25;28.02;;;9.80;99.90;;;;;;5039304;28;20417;-70
2020/12/23 05:29:32;;;;;;;90.38;28.98;;;9.80;99.90;;;;;;5041329;28;20045;-71
2020/12/23 05:32:04;;;;;;;77.55;30.13;;;9.80;99.90;;;;;;5045851;28;20151;-71
2020/12/23 05:34:35;;;;;;;103.45;30.80;;;9.80;99.90;;;;;;5064046;28;20078;-70
2020/12/23 05:37:03;;;;;;;82.90;29.70;;;9.80;99.90;;;;;;5061744;28;20071;-71
2020/12/23 05:39:33;;;;;;;97.57;29.27;;;9.60;99.90;;;;;;5063318;28;20366;-71
2020/12/23 05:42:00;;;;;;;98.72;30.15;;;9.60;99.90;;;;;;5041507;28;20136;-71
2020/12/23 05:44:28;;;;;;;100.53;30.13;;;9.60;99.90;;;;;;5061503;28;20102;-71
2020/12/23 05:46:55;;;;;;;98.68;30.48;;;9.70;99.90;;;;;;5045253;28;20051;-71
2020/12/23 05:49:23;;;;;;;107.35;30.98;;;9.70;99.90;;;;;;5062565;28;20125;-71
2020/12/23 05:51:50;;;;;;;92.82;29.60;;;9.70;99.90;;;;;;5064011;28;20044;-72
2020/12/23 05:54:21;;;;;;;93.22;29.48;;;9.80;99.90;;;;;;5062961;28;20041;-72
2020/12/23 05:56:51;;;;;;;102.72;31.13;;;9.80;99.90;;;;;;5060392;28;20052;-71
2020/12/23 05:59:21;;;;;;;86.78;30.02;;;9.70;99.90;;;;;;5044677;28;20072;-71
2020/12/23 06:01:49;;;;;;;96.20;29.50;;;9.80;99.90;;;;;;5058021;28;20055;-71
2020/12/23 06:04:17;;;;;;;107.03;31.02;;;9.80;99.90;;;;;;5045011;28;20136;-70
2020/12/23 06:07:04;;;;;;;89.28;29.30;;;9.80;99.90;;;;;;5065313;28;20101;-71
2020/12/23 06:09:55;;;;;;;98.47;29.25;;;9.80;99.90;;;;;;5066517;28;20523;-71
2020/12/23 06:12:22;;;;;;;101.57;31.00;;;9.80;99.90;;;;;;5067296;28;20068;-69
2020/12/23 06:14:57;;;;;;;78.22;26.83;;;9.80;99.90;;;;;;5066109;28;20117;-70
2020/12/23 06:17:25;;;;;;;69.30;27.83;;;9.80;99.90;;;;;;5048716;28;20045;-71
2020/12/23 06:19:58;;;;;;;79.47;28.55;;;9.80;99.90;;;;;;5068330;28;20455;-71
2020/12/23 06:22:26;;;;;;;80.28;28.77;;;9.80;99.90;;;;;;5067390;28;20044;-73
2020/12/23 06:24:52;;;;;;;89.53;27.85;;;9.80;99.90;;;;;;5067339;28;20048;-73
2020/12/23 06:27:19;;;;;;;88.53;28.60;;;9.80;99.90;;;;;;5041360;28;20487;-71
2020/12/23 06:29:47;;;;;;;86.45;28.08;;;9.80;99.90;;;;;;5067696;28;20040;-71
2020/12/23 06:32:22;;;;;;;93.63;30.40;;;9.80;99.90;;;;;;5067062;28;20059;-72
2020/12/23 06:34:59;;;;;;;88.82;27.52;;;9.80;99.90;;;;;;5048939;28;20044;-71
2020/12/23 06:37:29;;;;;;;94.28;30.00;;;9.80;99.90;;;;;;5065629;28;20040;-72
2020/12/23 06:39:56;;;;;;;91.63;28.38;;;9.80;99.90;;;;;;5065457;28;20049;-72
2020/12/23 06:42:24;;;;;;;90.50;29.08;;;9.80;99.90;;;;;;5040224;28;20041;-71
2020/12/23 06:44:51;;;;;;;86.10;28.42;;;9.90;99.90;;;;;;5057907;28;20083;-72
2020/12/23 06:47:17;;;;;;;90.13;27.63;;;9.90;99.90;;;;;;5065897;28;20055;-72
2020/12/23 06:49:46;;;;;;;81.05;27.08;;;9.80;99.90;;;;;;5048256;28;20544;-72
2020/12/23 06:52:21;;;;;;;84.72;26.23;;;9.90;99.90;;;;;;5048005;28;20040;-72
2020/12/23 06:54:52;;;;;;;78.05;25.30;;;9.80;99.90;;;;;;5065483;28;20109;-73
2020/12/23 06:57:38;;;;;;;81.10;26.65;;;9.80;99.90;;;;;;5054845;28;20045;-73
2020/12/23 07:00:15;;;;;;;77.65;25.98;;;9.80;99.90;;;;;;5046152;28;20077;-73
2020/12/23 07:02:46;;;;;;;67.40;22.85;;;9.80;99.90;;;;;;5056481;28;20040;-71
2020/12/23 07:05:21;;;;;;;71.15;22.50;;;9.90;99.90;;;;;;5063380;28;20136;-72
2020/12/23 07:07:52;;;;;;;;;;;9.90;99.90;;;;;;5065626;28;20156;-72
2020/12/23 07:10:21;;;;;;;57.33;21.00;;;9.90;99.90;;;;;;5064005;28;20293;-72
2020/12/23 07:12:52;;;;;;;43.60;19.23;;;9.90;99.90;;;;;;5039935;28;20123;-72
2020/12/23 07:15:25;;;;;;;49.92;20.27;;;9.80;99.90;;;;;;5047117;28;20052;-72
2020/12/23 07:17:52;;;;;;;54.05;21.35;;;9.80;99.90;;;;;;5045309;28;20049;-72
2020/12/23 07:20:22;;;;;;;49.70;20.13;;;9.90;99.90;;;;;;5060524;28;20305;-72
2020/12/23 07:22:51;;;;;;;62.60;21.33;;;9.80;99.90;;;;;;5064514;28;20040;-72
2020/12/23 07:25:25;;;;;;;55.00;22.60;;;9.70;99.90;;;;;;5045236;28;20516;-72
2020/12/23 07:27:56;;;;;;;51.97;21.70;;;9.80;99.90;;;;;;5045529;28;20532;-73
2020/12/23 07:30:23;;;;;;;55.75;21.70;;;9.90;99.90;;;;;;5057819;28;20649;-74
2020/12/23 07:33:14;;;;;;;41.67;19.90;;;9.90;99.90;;;;;;5063912;28;20133;-73
2020/12/23 07:35:47;;;;;;;53.33;21.15;;;9.90;99.90;;;;;;5063487;28;20135;-73
2020/12/23 07:38:15;;;;;;;128.60;28.58;;;10.00;99.90;;;;;;5065677;28;20505;-73
2020/12/23 07:40:41;;;;;;;86.22;24.58;;;10.00;99.90;;;;;;5047278;28;20043;-72
2020/12/23 07:43:08;;;;;;;61.47;23.83;;;10.10;99.90;;;;;;5031880;28;20395;-73
2020/12/23 07:45:36;;;;;;;67.40;24.60;;;10.00;99.90;;;;;;5079196;28;20049;-73
2020/12/23 07:48:05;;;;;;;66.07;22.83;;;10.00;99.90;;;;;;5064884;28;20232;-73
2020/12/23 07:50:40;;;;;;;55.33;22.15;;;10.00;99.90;;;;;;5029869;28;20055;-74
2020/12/23 07:53:15;;;;;;;50.15;20.80;;;9.90;99.90;;;;;;5047531;28;20059;-73
2020/12/23 07:55:46;;;;;;;49.92;20.83;;;9.90;99.90;;;;;;5060230;28;20126;-73
2020/12/23 07:58:13;;;;;;;60.63;21.88;;;9.90;99.90;;;;;;5026854;28;20059;-73
2020/12/23 08:00:43;;;;;;;51.30;21.52;;;9.90;99.90;;;;;;5063026;28;20044;-73
2020/12/23 08:03:11;;;;;;;66.63;23.05;;;9.90;99.90;;;;;;5047003;28;20584;-73
2020/12/23 08:05:39;;;;;;;68.05;27.92;;;10.00;99.90;;;;;;5063958;28;20049;-73
2020/12/23 08:08:25;;;;;;;92.15;30.35;;;10.00;99.90;;;;;;5064645;28;20048;-72
2020/12/23 08:10:51;;;;;;;43.33;19.98;;;10.10;99.90;;;;;;5062971;28;20052;-73
2020/12/23 08:13:25;;;;;;;47.13;20.20;;;10.10;99.90;;;;;;5055209;28;20165;-72
2020/12/23 08:16:11;;;;;;;46.88;20.67;;;10.10;99.90;;;;;;5043118;28;20172;-73
2020/12/23 08:18:38;;;;;;;48.70;19.50;;;10.10;99.90;;;;;;5043531;28;20072;-72
2020/12/23 08:21:13;;;;;;;48.08;18.58;;;10.10;99.90;;;;;;5045667;28;20132;-71
2020/12/23 08:23:40;;;;;;;44.40;18.25;;;10.10;99.90;;;;;;5047724;28;20513;-72
2020/12/23 08:26:08;;;;;;;39.20;16.95;;;10.10;99.90;;;;;;5029012;28;20144;-72
2020/12/23 08:28:40;;;;;;;37.92;16.98;;;10.10;99.90;;;;;;5045529;28;20143;-73
2020/12/23 08:31:11;;;;;;;55.90;20.77;;;10.00;99.90;;;;;;5045826;28;20058;-72
2020/12/23 08:33:40;;;;;;;76.18;28.33;;;10.00;99.90;;;;;;5047177;28;20158;-72
2020/12/23 08:36:07;;;;;;;47.67;21.20;;;10.10;99.90;;;;;;5046725;28;20045;-73
2020/12/23 08:38:41;;;;;;;42.88;19.15;;;10.10;99.90;;;;;;5047657;28;20088;-74
2020/12/23 08:41:14;;;;;;;43.13;17.95;;;10.00;99.90;;;;;;5041322;28;20041;-73
2020/12/23 08:43:50;;;;;;;40.10;17.33;;;10.00;99.90;;;;;;5050697;28;20060;-72
2020/12/23 08:46:24;;;;;;;37.70;16.60;;;10.10;99.90;;;;;;5044886;28;20413;-72
2020/12/23 08:48:51;;;;;;;29.55;13.57;;;10.10;99.90;;;;;;5063275;28;20055;-71
2020/12/23 08:51:19;;;;;;;25.80;13.30;;;10.10;99.90;;;;;;5062579;28;20102;-73
2020/12/23 08:53:47;;;;;;;28.98;14.23;;;10.10;99.90;;;;;;5046459;28;20062;-73
2020/12/23 08:56:26;;;;;;;27.30;14.02;;;10.20;99.90;;;;;;5056117;28;20074;-71
2020/12/23 08:59:06;;;;;;;29.08;13.85;;;10.20;99.90;;;;;;5049631;28;20163;-73
2020/12/23 09:01:34;;;;;;;24.20;12.18;;;10.20;99.90;;;;;;5035739;28;20179;-73
2020/12/23 09:04:09;;;;;;;25.05;13.38;;;10.10;99.90;;;;;;5041100;28;20151;-73
2020/12/23 09:06:41;;;;;;;25.17;13.27;;;10.10;99.90;;;;;;5020577;28;20405;-73
2020/12/23 09:09:13;;;;;;;19.42;11.23;;;10.10;99.90;;;;;;5050994;28;20174;-72
2020/12/23 09:11:46;;;;;;;18.60;10.35;;;10.10;99.90;;;;;;5051840;28;20052;-72
2020/12/23 09:14:38;;;;;;;15.50;8.50;;;10.10;99.90;;;;;;5016312;28;20051;-73
2020/12/23 09:17:08;;;;;;;9.88;7.53;;;10.10;99.90;;;;;;5060750;28;20493;-73
2020/12/23 09:19:49;;;;;;;8.02;5.30;;;10.20;99.90;;;;;;5032517;28;20395;-72
2020/12/23 09:22:36;;;;;;;5.07;4.38;;;10.30;99.90;;;;;;5045263;28;20044;-72
2020/12/23 09:25:13;;;;;;;4.43;3.90;;;10.30;99.90;;;;;;5050155;28;20071;-72
2020/12/23 09:27:39;;;;;;;4.25;3.85;;;10.40;99.90;;;;;;5043081;28;20054;-72
2020/12/23 09:30:06;;;;;;;6.07;4.20;;;10.40;99.90;;;;;;5057929;28;20056;-73
2020/12/23 09:32:34;;;;;;;4.13;3.58;;;10.50;99.90;;;;;;5042863;28;20194;-73
2020/12/23 09:35:16;;;;;;;9.55;7.82;;;10.60;99.90;;;;;;5051392;28;20202;-73
2020/12/23 09:37:43;;;;;;;5.60;5.00;;;10.60;99.90;;;;;;5046572;28;20037;-72
2020/12/23 09:40:11;;;;;;;5.53;5.03;;;10.60;99.90;;;;;;5064024;28;20122;-72
2020/12/23 09:42:39;;;;;;;7.20;6.50;;;10.70;99.90;;;;;;5066945;28;20093;-72
2020/12/23 09:45:07;;;;;;;7.72;6.55;;;10.80;99.90;;;;;;5067961;28;20041;-71
2020/12/23 09:47:40;;;;;;;13.00;9.43;;;10.80;99.90;;;;;;5068194;28;20056;-70
2020/12/23 09:50:07;;;;;;;8.13;7.22;;;10.90;99.90;;;;;;5069500;28;20056;-72
2020/12/23 09:52:33;;;;;;;10.20;7.47;;;10.90;99.90;;;;;;5050963;28;20056;-72
2020/12/23 09:54:59;;;;;;;11.45;10.32;;;11.00;99.90;;;;;;5051479;28;20049;-72
2020/12/23 09:57:25;;;;;;;12.55;10.52;;;11.00;99.90;;;;;;5063137;28;20579;-72
2020/12/23 09:59:52;;;;;;;10.65;8.40;;;11.00;99.90;;;;;;5067267;28;20056;-72
2020/12/23 10:02:18;;;;;;;7.55;6.78;;;11.00;99.90;;;;;;5049885;28;20045;-71
2020/12/23 10:04:44;;;;;;;7.70;6.28;;;11.00;99.90;;;;;;5067867;28;20056;-71
2020/12/23 10:07:11;;;;;;;6.85;6.15;;;11.10;99.90;;;;;;5056279;28;20052;-71
2020/12/23 10:09:44;;;;;;;7.47;6.78;;;11.10;99.90;;;;;;5062405;28;20044;-71
2020/12/23 10:12:10;;;;;;;7.22;6.55;;;11.20;99.90;;;;;;5069348;28;20052;-72
2020/12/23 10:14:36;;;;;;;6.68;6.07;;;11.30;99.90;;;;;;5067737;28;20037;-73
2020/12/23 10:17:03;;;;;;;7.15;5.88;;;11.30;99.90;;;;;;5067154;28;20044;-73
2020/12/23 10:19:29;;;;;;;7.32;6.43;;;11.30;99.90;;;;;;5067761;28;20268;-71
2020/12/23 10:21:55;;;;;;;6.88;6.18;;;11.30;99.90;;;;;;5066380;28;20055;-70
2020/12/23 10:24:21;;;;;;;7.47;6.53;;;11.20;99.90;;;;;;5068357;28;20068;-71
2020/12/23 10:26:52;;;;;;;6.88;6.13;;;11.20;99.90;;;;;;5062791;28;20448;-71
2020/12/23 10:29:20;;;;;;;7.82;6.70;;;11.20;99.90;;;;;;5065601;28;20110;-71
2020/12/23 10:31:47;;;;;;;7.57;6.35;;;11.20;99.90;;;;;;5067180;28;20131;-72
2020/12/23 10:34:14;;;;;;;23.55;21.17;;;11.30;99.90;;;;;;5067578;28;20040;-72
2020/12/23 10:36:40;;;;;;;8.77;7.38;;;11.30;99.90;;;;;;5066452;28;20240;-71
2020/12/23 10:39:07;;;;;;;11.75;7.05;;;11.30;99.90;;;;;;5059625;28;20040;-70
2020/12/23 10:41:33;;;;;;;5.75;5.18;;;11.30;99.90;;;;;;5068961;28;20041;-72
2020/12/23 10:43:59;;;;;;;7.05;6.45;;;11.30;99.90;;;;;;5067274;28;20499;-70
2020/12/23 10:46:26;;;;;;;5.57;5.13;;;11.30;99.90;;;;;;5067406;28;20044;-71
2020/12/23 10:48:52;;;;;;;6.63;6.13;;;11.30;99.90;;;;;;5067222;28;20063;-72
2020/12/23 10:51:18;;;;;;;6.43;5.82;;;11.30;99.90;;;;;;5046251;28;20101;-70
2020/12/23 10:53:45;;;;;;;6.60;6.00;;;11.30;99.90;;;;;;5064520;28;20049;-70
2020/12/23 10:56:11;;;;;;;10.02;9.05;;;11.30;99.90;;;;;;5056018;28;20481;-70
2020/12/23 10:58:38;;;;;;;8.55;7.75;;;11.30;99.90;;;;;;5063057;28;20151;-71
2020/12/23 11:01:07;;;;;;;7.43;6.72;;;11.50;99.90;;;;;;5030649;28;20167;-70
2020/12/23 11:03:33;;;;;;;7.82;7.10;;;11.40;99.90;;;;;;5064389;28;20052;-71
2020/12/23 11:06:01;;;;;;;8.23;6.80;;;11.40;99.90;;;;;;5064633;28;20277;-70
2020/12/23 11:08:27;;;;;;;5.72;5.30;;;11.40;99.90;;;;;;5020483;28;20057;-71
2020/12/23 11:10:54;;;;;;;6.32;5.70;;;11.40;99.90;;;;;;5063405;28;20228;-71
2020/12/23 11:13:21;;;;;;;8.05;7.25;;;11.50;99.90;;;;;;5065315;28;20084;-72
2020/12/23 11:15:47;;;;;;;26.05;16.00;;;11.50;99.90;;;;;;5063501;28;20044;-73
2020/12/23 11:18:13;;;;;;;13.40;8.73;;;11.50;99.90;;;;;;5065412;28;20135;-71
2020/12/23 11:20:40;;;;;;;8.43;7.07;;;11.50;99.90;;;;;;5063281;28;20558;-71
2020/12/23 11:23:06;;;;;;;15.60;11.02;;;11.50;99.90;;;;;;5047018;28;20103;-72
2020/12/23 11:25:34;;;;;;;26.48;21.60;;;11.70;99.90;;;;;;5060046;28;20071;-70
2020/12/23 11:28:00;;;;;;;10.68;9.77;;;11.70;99.90;;;;;;5049512;28;20156;-70
2020/12/23 11:30:26;;;;;;;16.45;15.05;;;11.70;99.90;;;;;;5063055;28;20051;-71
2020/12/23 11:32:53;;;;;;;19.38;17.67;;;11.70;99.90;;;;;;5065063;28;20037;-71
2020/12/23 11:35:19;;;;;;;9.52;8.73;;;11.80;99.90;;;;;;5064705;28;20150;-73
2020/12/23 11:37:45;;;;;;;13.20;12.13;;;11.80;99.90;;;;;;5054602;28;20098;-72
2020/12/23 11:40:21;;;;;;;6.97;6.28;;;11.80;99.90;;;;;;5046492;28;20090;-70
2020/12/23 11:42:47;;;;;;;7.35;6.53;;;11.70;99.90;;;;;;5062458;28;20459;-70
2020/12/23 11:45:13;;;;;;;6.38;5.78;;;11.70;99.90;;;;;;5048362;28;20052;-71
2020/12/23 11:47:39;;;;;;;6.82;6.13;;;11.60;99.90;;;;;;5043487;28;20052;-71
2020/12/23 11:50:06;;;;;;;7.20;6.60;;;11.60;99.90;;;;;;5044326;28;20441;-70
2020/12/23 11:52:32;;;;;;;7.07;6.47;;;11.60;99.90;;;;;;5041632;28;20085;-71
2020/12/23 11:54:59;;;;;;;8.07;7.25;;;11.60;99.90;;;;;;5043590;28;20041;-71
2020/12/23 11:57:25;;;;;;;5.10;4.70;;;11.60;99.90;;;;;;5056827;28;20055;-72
2020/12/23 11:59:51;;;;;;;6.10;5.15;;;11.50;99.90;;;;;;5043152;28;20060;-71
2020/12/23 12:02:17;;;;;;;7.43;6.82;;;11.50;99.90;;;;;;5059149;28;20041;-71
2020/12/23 12:04:44;;;;;;;6.13;5.57;;;11.50;99.90;;;;;;5044508;28;20064;-71
2020/12/23 12:07:11;;;;;;;8.00;7.40;;;11.50;99.90;;;;;;5059113;28;20053;-72
2020/12/23 12:09:37;;;;;;;7.47;6.88;;;11.50;99.90;;;;;;5043709;28;20044;-71
2020/12/23 12:12:03;;;;;;;6.90;6.47;;;11.60;99.90;;;;;;5071717;28;20057;-70
2020/12/23 12:14:32;;;;;;;8.02;7.32;;;11.60;99.90;;;;;;5062635;28;20127;-71
2020/12/23 12:16:59;;;;;;;6.47;6.00;;;11.60;99.90;;;;;;5061028;28;20412;-70
2020/12/23 12:19:25;;;;;;;5.57;5.28;;;11.60;99.90;;;;;;5063091;28;20033;-71
2020/12/23 12:21:51;;;;;;;6.97;6.47;;;11.60;99.90;;;;;;5062488;28;20048;-71
2020/12/23 12:24:17;;;;;;;7.95;7.30;;;11.60;99.90;;;;;;5063226;28;20048;-72
2020/12/23 12:26:44;;;;;;;6.22;5.70;;;11.70;99.90;;;;;;5062208;28;20531;-72
2020/12/23 12:29:11;;;;;;;7.65;7.05;;;11.60;99.90;;;;;;5062612;28;20046;-71
2020/12/23 12:31:37;;;;;;;7.78;7.18;;;11.70;99.90;;;;;;5028919;28;20612;-71
2020/12/23 12:34:03;;;;;;;8.90;8.07;;;11.70;99.90;;;;;;5062768;28;20045;-70
2020/12/23 12:36:30;;;;;;;7.65;6.97;;;11.80;99.90;;;;;;5061176;28;20083;-71
2020/12/23 12:38:56;;;;;;;6.80;6.20;;;11.80;99.90;;;;;;5045608;28;20061;-70
2020/12/23 12:41:27;;;;;;;8.55;7.90;;;11.70;99.90;;;;;;5062099;28;20042;-73
2020/12/23 12:43:54;;;;;;;9.05;8.25;;;11.80;99.90;;;;;;5062677;28;20058;-71